Time;durP1;ratioP1;P1;durP2;ratioP2;P2;SDS_P1;SDS_P2;PMS_P1;PMS_P2;Temp;Humidity;BMP_temperature;BMP_pressure;BME280_temperature;BME280_humidity;BME280_pressure;Samples;Min_cycle;Max_cycle;Signal;HPM_P1;HPM_P2
2022/04/03 04:02:15;;;;;;;19.10;14.80;;;1.60;99.90;;;;;;5146641;23;21029;-64
2022/04/03 04:04:41;;;;;;;18.83;14.70;;;1.60;99.90;;;;;;4977462;28;20450;-64
2022/04/03 04:07:08;;;;;;;16.00;14.40;;;1.60;99.90;;;;;;4977322;28;20446;-65
2022/04/03 04:09:35;;;;;;;16.20;14.50;;;1.60;99.90;;;;;;4977137;28;20534;-64
2022/04/03 04:12:03;;;;;;;16.50;14.80;;;1.60;99.90;;;;;;4976876;28;20477;-65
2022/04/03 04:14:30;;;;;;;16.63;15.00;;;1.70;99.90;;;;;;4977254;28;20495;-65
2022/04/03 04:16:57;;;;;;;16.83;15.13;;;1.60;99.90;;;;;;4976776;28;20461;-64
2022/04/03 04:19:25;;;;;;;20.87;14.30;;;1.60;99.90;;;;;;4976556;28;20467;-65
2022/04/03 04:21:52;;;;;;;17.13;14.33;;;1.70;99.90;;;;;;4976505;28;20483;-65
2022/04/03 04:24:19;;;;;;;18.17;14.77;;;1.60;99.90;;;;;;4976751;28;20883;-65
2022/04/03 04:26:46;;;;;;;16.80;15.00;;;1.60;99.90;;;;;;4976545;28;20463;-66
2022/04/03 04:29:13;;;;;;;14.10;12.70;;;1.60;99.90;;;;;;4976494;28;20463;-66
2022/04/03 04:31:39;;;;;;;15.07;13.10;;;1.50;99.90;;;;;;4976297;28;20989;-65
2022/04/03 04:34:07;;;;;;;15.50;14.07;;;1.60;99.90;;;;;;4976744;28;20459;-66
2022/04/03 04:36:35;;;;;;;14.90;13.40;;;1.50;99.90;;;;;;4976565;28;20836;-64
2022/04/03 04:39:02;;;;;;;15.13;13.73;;;1.50;99.90;;;;;;4976334;28;20465;-65
2022/04/03 04:41:28;;;;;;;15.07;13.57;;;1.60;99.90;;;;;;4976513;28;20489;-64
2022/04/03 04:43:55;;;;;;;15.97;14.37;;;1.50;99.90;;;;;;4976535;28;20860;-65
2022/04/03 04:46:22;;;;;;;17.27;14.97;;;1.50;99.90;;;;;;4977589;28;20457;-64
2022/04/03 04:48:49;;;;;;;14.83;13.23;;;1.50;99.90;;;;;;4983011;28;20461;-65
2022/04/03 04:51:17;;;;;;;15.90;14.00;;;1.50;99.90;;;;;;4985093;28;20521;-64
2022/04/03 04:53:45;;;;;;;18.10;13.57;;;1.50;99.90;;;;;;4978549;28;20459;-66
2022/04/03 04:56:12;;;;;;;14.20;12.77;;;1.50;99.90;;;;;;4976562;28;20475;-64
2022/04/03 04:58:39;;;;;;;16.57;14.20;;;1.50;99.90;;;;;;4976020;28;20482;-65
2022/04/03 05:01:06;;;;;;;14.37;12.93;;;1.60;99.90;;;;;;4976028;28;20488;-65
2022/04/03 05:03:33;;;;;;;14.10;12.70;;;1.60;99.90;;;;;;4975975;28;20485;-66
2022/04/03 05:06:00;;;;;;;14.20;12.77;;;1.50;99.90;;;;;;4975862;28;20458;-66
2022/04/03 05:08:26;;;;;;;14.93;12.73;;;1.50;99.90;;;;;;4976078;28;20465;-65
2022/04/03 05:10:55;;;;;;;14.10;12.70;;;1.50;99.90;;;;;;4976596;28;20486;-64
2022/04/03 05:13:25;;;;;;;15.90;13.00;;;1.50;99.90;;;;;;4976280;28;20468;-65
2022/04/03 05:15:52;;;;;;;13.13;11.70;;;1.50;99.90;;;;;;4975950;28;20505;-65
2022/04/03 05:18:19;;;;;;;14.20;12.80;;;1.50;99.90;;;;;;4975904;28;20463;-65
2022/04/03 05:20:46;;;;;;;14.40;12.97;;;1.50;99.90;;;;;;4976014;28;20482;-65
2022/04/03 05:23:13;;;;;;;14.60;13.10;;;1.60;99.90;;;;;;4975739;28;20493;-66
2022/04/03 05:25:40;;;;;;;13.63;12.40;;;1.50;99.90;;;;;;4975762;28;20455;-65
2022/04/03 05:28:09;;;;;;;16.70;12.70;;;1.50;99.90;;;;;;4976221;28;20463;-64
2022/04/03 05:30:36;;;;;;;14.87;13.03;;;1.50;99.90;;;;;;4976795;28;20963;-66
2022/04/03 05:33:03;;;;;;;13.97;12.53;;;1.60;99.90;;;;;;4976577;28;20457;-65
2022/04/03 05:35:29;;;;;;;12.97;11.73;;;1.50;99.90;;;;;;4975917;28;20489;-64
2022/04/03 05:37:56;;;;;;;13.80;12.37;;;1.60;99.90;;;;;;4976773;28;20458;-65
2022/04/03 05:40:23;;;;;;;11.50;10.40;;;1.60;99.90;;;;;;4975735;28;20452;-65
2022/04/03 05:42:49;;;;;;;13.13;11.93;;;1.60;99.90;;;;;;4976233;28;20457;-64
2022/04/03 05:45:18;;;;;;;15.60;12.70;;;1.60;99.90;;;;;;4976621;28;20456;-65
2022/04/03 05:47:44;;;;;;;13.33;11.93;;;1.60;99.90;;;;;;4976254;28;20458;-65
2022/04/03 05:50:12;;;;;;;12.97;11.67;;;1.60;99.90;;;;;;4975438;28;20468;-64
2022/04/03 05:52:40;;;;;;;11.83;10.67;;;1.70;99.90;;;;;;4975817;28;20509;-65
2022/04/03 05:55:08;;;;;;;11.80;10.60;;;1.70;99.90;;;;;;4975668;28;20489;-64
2022/04/03 05:57:37;;;;;;;11.53;10.43;;;1.80;99.90;;;;;;4975856;28;20517;-65
2022/04/03 06:00:06;;;;;;;12.33;11.17;;;1.80;99.90;;;;;;4975801;28;20454;-65
2022/04/03 06:02:49;;;;;;;11.60;10.50;;;1.80;99.90;;;;;;4975446;28;20486;-64
2022/04/03 06:05:17;;;;;;;11.20;9.73;;;1.80;99.90;;;;;;4975831;28;20435;-64
2022/04/03 06:07:44;;;;;;;9.90;8.90;;;1.90;99.90;;;;;;4975755;28;20470;-64
2022/04/03 06:10:12;;;;;;;11.07;10.07;;;2.00;99.90;;;;;;4975786;28;20490;-64
2022/04/03 06:12:51;;;;;;;11.37;10.27;;;2.00;99.90;;;;;;4975872;28;20465;-65
2022/04/03 06:15:18;;;;;;;10.60;9.60;;;2.00;99.90;;;;;;4975888;28;20468;-65
2022/04/03 06:17:48;;;;;;;10.80;9.80;;;2.00;99.90;;;;;;4975615;28;20828;-65
2022/04/03 06:20:15;;;;;;;11.20;10.20;;;2.00;99.90;;;;;;4975525;28;20455;-65
2022/04/03 06:22:41;;;;;;;13.73;10.43;;;2.10;99.90;;;;;;4975855;28;20469;-66
2022/04/03 06:25:09;;;;;;;10.60;9.60;;;2.00;99.90;;;;;;4975954;28;20451;-65
2022/04/03 06:27:36;;;;;;;11.00;9.90;;;2.00;99.90;;;;;;4975539;28;20485;-65
2022/04/03 06:30:03;;;;;;;11.47;10.30;;;2.00;99.90;;;;;;4975461;28;20468;-66
2022/04/03 06:32:30;;;;;;;11.13;9.57;;;2.10;99.90;;;;;;4980379;28;20485;-64
2022/04/03 06:34:58;;;;;;;10.90;9.80;;;2.20;99.90;;;;;;4983546;28;20462;-66
2022/04/03 06:37:25;;;;;;;10.90;9.23;;;2.40;99.90;;;;;;4983639;28;20462;-65
2022/04/03 06:39:51;;;;;;;9.47;8.60;;;2.70;99.90;;;;;;4982453;28;20851;-66
2022/04/03 06:42:18;;;;;;;8.70;8.00;;;2.90;99.90;;;;;;4982670;28;20539;-64
2022/04/03 06:44:45;;;;;;;11.30;8.30;;;3.10;99.90;;;;;;4979531;28;20941;-65
2022/04/03 06:47:12;;;;;;;9.30;8.40;;;3.30;99.90;;;;;;4981268;28;20487;-65
2022/04/03 06:49:40;;;;;;;10.00;9.10;;;3.40;99.90;;;;;;4984507;28;20454;-64
2022/04/03 06:52:09;;;;;;;8.83;7.43;;;3.40;99.90;;;;;;4984545;28;20474;-64
2022/04/03 06:54:36;;;;;;;14.03;7.80;;;3.40;99.90;;;;;;4984208;28;20483;-64
2022/04/03 06:57:03;;;;;;;10.10;7.60;;;3.50;99.90;;;;;;4979011;28;20838;-66
2022/04/03 06:59:30;;;;;;;12.13;8.07;;;3.60;99.90;;;;;;4979060;28;20462;-65
2022/04/03 07:01:57;;;;;;;9.83;7.87;;;3.60;99.90;;;;;;4978640;28;20623;-65
2022/04/03 07:04:24;;;;;;;8.13;7.30;;;3.70;99.90;;;;;;4978897;28;20459;-65
2022/04/03 07:06:51;;;;;;;8.87;7.97;;;3.80;99.90;;;;;;4979012;28;20477;-65
2022/04/03 07:09:19;;;;;;;9.00;7.70;;;3.90;99.90;;;;;;4982768;28;20466;-64
2022/04/03 07:11:45;;;;;;;8.40;7.33;;;4.00;99.90;;;;;;4985507;28;20470;-64
2022/04/03 07:14:12;;;;;;;7.50;6.80;;;4.10;99.90;;;;;;4979480;28;20478;-65
2022/04/03 07:16:39;;;;;;;8.20;6.73;;;4.30;99.90;;;;;;4978556;28;20485;-64
2022/04/03 07:19:06;;;;;;;7.00;6.40;;;4.20;99.90;;;;;;4978438;28;20490;-65
2022/04/03 07:21:33;;;;;;;6.80;6.30;;;4.20;99.90;;;;;;4978549;28;21001;-64
2022/04/03 07:24:00;;;;;;;8.40;6.33;;;4.10;99.90;;;;;;4978703;28;20486;-65
2022/04/03 07:26:28;;;;;;;8.07;6.70;;;4.10;99.90;;;;;;4978659;28;20451;-64
2022/04/03 07:28:55;;;;;;;7.67;6.87;;;4.20;99.90;;;;;;4978208;28;20463;-63
2022/04/03 07:31:22;;;;;;;7.20;6.60;;;4.30;99.90;;;;;;4977881;28;20479;-64
2022/04/03 07:33:48;;;;;;;9.10;6.80;;;4.20;99.90;;;;;;4978746;28;20486;-65
2022/04/03 07:36:16;;;;;;;11.83;7.60;;;4.20;99.90;;;;;;4977798;28;20479;-64
2022/04/03 07:38:42;;;;;;;7.47;6.87;;;4.30;99.90;;;;;;4978664;28;20465;-66
2022/04/03 07:41:09;;;;;;;7.27;6.67;;;4.30;99.90;;;;;;4979242;28;20482;-64
2022/04/03 07:43:37;;;;;;;7.40;6.70;;;4.30;99.90;;;;;;4977819;28;20462;-64
2022/04/03 07:46:04;;;;;;;6.87;5.90;;;4.50;99.90;;;;;;4977021;28;20455;-64
2022/04/03 07:48:31;;;;;;;7.70;6.90;;;4.60;99.90;;;;;;4977640;28;20435;-64
2022/04/03 07:50:58;;;;;;;7.53;6.20;;;4.70;99.90;;;;;;4977372;28;21000;-65
2022/04/03 07:53:24;;;;;;;6.53;5.90;;;4.80;99.90;;;;;;4977306;28;20954;-65
2022/04/03 07:55:51;;;;;;;6.63;6.03;;;4.90;99.90;;;;;;4976869;28;20483;-66
2022/04/03 07:58:18;;;;;;;6.40;5.80;;;4.80;99.90;;;;;;4977310;28;20458;-64
2022/04/03 08:00:46;;;;;;;7.90;6.10;;;4.90;99.90;;;;;;4977537;28;20482;-64
2022/04/03 08:03:14;;;;;;;7.60;6.57;;;4.80;99.90;;;;;;4977193;28;20470;-64
2022/04/03 08:05:41;;;;;;;7.87;7.23;;;4.80;99.90;;;;;;4977367;28;20815;-64
2022/04/03 08:08:08;;;;;;;7.20;6.60;;;4.70;99.90;;;;;;4976943;28;20454;-65
2022/04/03 08:10:34;;;;;;;6.33;5.73;;;4.80;99.90;;;;;;4977355;28;20482;-64
2022/04/03 08:13:01;;;;;;;6.30;5.70;;;4.80;99.90;;;;;;4977226;28;20459;-63
2022/04/03 08:15:28;;;;;;;6.10;5.17;;;4.90;99.90;;;;;;4976642;28;20463;-64
2022/04/03 08:17:56;;;;;;;5.70;5.20;;;5.00;99.90;;;;;;4976817;28;20494;-63
2022/04/03 08:20:23;;;;;;;7.03;5.57;;;5.40;99.90;;;;;;4976544;28;20458;-65
2022/04/03 08:22:50;;;;;;;7.10;5.00;;;6.10;99.90;;;;;;4976669;28;20455;-64
2022/04/03 08:25:17;;;;;;;5.53;5.03;;;6.80;99.90;;;;;;4976955;28;20458;-64
2022/04/03 08:27:45;;;;;;;6.03;5.53;;;7.40;99.90;;;;;;4976937;28;20454;-65
2022/04/03 08:30:14;;;;;;;5.47;5.07;;;7.40;99.90;;;;;;4977169;28;20466;-64
2022/04/03 08:32:40;;;;;;;5.60;5.20;;;7.30;99.90;;;;;;4976920;28;20887;-64
2022/04/03 08:35:11;;;;;;;5.73;5.33;;;7.50;99.90;;;;;;4976729;28;20562;-64
2022/04/03 08:37:38;;;;;;;5.87;5.37;;;7.90;99.90;;;;;;4976233;28;20467;-64
2022/04/03 08:40:06;;;;;;;8.30;5.13;;;8.70;99.90;;;;;;4976281;28;20459;-65
2022/04/03 08:42:34;;;;;;;5.80;5.20;;;9.40;99.90;;;;;;4976487;28;20481;-66
2022/04/03 08:45:01;;;;;;;5.37;4.83;;;9.60;99.90;;;;;;4976431;28;20466;-66
2022/04/03 08:47:29;;;;;;;5.40;5.00;;;9.50;99.90;;;;;;4976586;28;20458;-66
2022/04/03 08:49:58;;;;;;;4.43;4.10;;;8.90;99.90;;;;;;4976155;28;20463;-65
2022/04/03 08:52:28;;;;;;;5.43;5.00;;;8.40;99.90;;;;;;4976672;28;20481;-66
2022/04/03 08:54:55;;;;;;;4.80;4.40;;;8.40;99.90;;;;;;4976422;28;20462;-65
2022/04/03 08:57:23;;;;;;;;;;;9.20;99.90;;;;;;4976111;28;20846;-65
2022/04/03 08:59:51;;;;;;;;;;;10.10;99.90;;;;;;4977034;28;19922;-67
2022/04/03 09:02:18;;;;;;;5.03;4.60;;;10.60;98.60;;;;;;4976695;28;20391;-65
2022/04/03 09:04:45;;;;;;;5.20;4.80;;;10.80;97.50;;;;;;4976745;28;20450;-62
2022/04/03 09:07:18;;;;;;;5.23;4.73;;;10.60;96.00;;;;;;4976224;28;20546;-60
2022/04/03 09:09:47;;;;;;;4.90;4.50;;;10.20;94.40;;;;;;4976449;28;20513;-62
2022/04/03 09:12:15;;;;;;;4.93;4.60;;;9.20;96.70;;;;;;4976097;28;20481;-62
2022/04/03 09:14:47;;;;;;;4.57;4.23;;;9.00;99.90;;;;;;4977283;28;20463;-62
2022/04/03 09:17:14;;;;;;;4.13;3.83;;;9.20;97.60;;;;;;4976446;28;20570;-61
2022/04/03 09:19:40;;;;;;;8.03;4.40;;;8.90;97.40;;;;;;4976103;28;20962;-62
2022/04/03 09:22:07;;;;;;;6.30;5.10;;;8.60;96.10;;;;;;4977019;28;20478;-62
2022/04/03 09:24:48;;;;;;;5.00;4.60;;;8.30;97.50;;;;;;4976555;28;20547;-61
2022/04/03 09:27:15;;;;;;;5.20;4.80;;;8.00;99.90;;;;;;4976475;28;20442;-61
2022/04/03 09:29:45;;;;;;;5.83;4.90;;;7.40;99.30;;;;;;4976088;28;20942;-62
2022/04/03 09:32:15;;;;;;;9.27;5.03;;;6.80;99.90;;;;;;4976449;28;20555;-62
2022/04/03 09:34:42;;;;;;;4.87;4.47;;;6.30;99.90;;;;;;4976689;28;20494;-62
2022/04/03 09:37:09;;;;;;;4.97;4.57;;;5.80;99.90;;;;;;4983614;28;20481;-63
2022/04/03 09:39:35;;;;;;;5.43;4.93;;;5.60;99.90;;;;;;4987710;28;20468;-63
2022/04/03 09:42:05;;;;;;;4.83;4.43;;;5.50;99.90;;;;;;4984202;28;20475;-64
2022/04/03 09:44:34;;;;;;;5.40;4.90;;;5.40;99.90;;;;;;4980717;28;20459;-61
2022/04/03 09:47:18;;;;;;;5.67;4.70;;;5.00;99.90;;;;;;4980506;28;20459;-63
2022/04/03 09:49:50;;;;;;;5.53;4.93;;;5.00;99.90;;;;;;4979296;28;20439;-61
2022/04/03 09:52:35;;;;;;;6.70;5.70;;;5.00;99.90;;;;;;4977402;28;20485;-66
2022/04/03 09:55:02;;;;;;;5.40;4.67;;;5.20;99.90;;;;;;4980162;28;20435;-63
2022/04/03 09:57:30;;;;;;;3.83;3.53;;;5.30;99.90;;;;;;4978009;28;20563;-63
2022/04/03 09:59:57;;;;;;;4.27;3.97;;;5.40;99.90;;;;;;4976013;28;20459;-63
2022/04/03 10:02:24;;;;;;;5.00;3.80;;;5.50;99.90;;;;;;4975879;28;20513;-62
2022/04/03 10:04:52;;;;;;;3.43;3.13;;;5.60;99.90;;;;;;4977813;28;20510;-62
2022/04/03 10:07:20;;;;;;;4.27;3.87;;;5.80;99.90;;;;;;4977775;28;20801;-61
2022/04/03 10:09:48;;;;;;;4.37;3.97;;;5.90;99.90;;;;;;4977374;28;20450;-62
2022/04/03 10:12:19;;;;;;;4.90;3.60;;;6.00;99.90;;;;;;4980708;28;20474;-62
2022/04/03 10:14:49;;;;;;;3.40;3.10;;;6.10;99.90;;;;;;4980051;28;20507;-62
2022/04/03 10:17:17;;;;;;;3.90;3.47;;;6.40;99.90;;;;;;4980229;28;20985;-62
2022/04/03 10:19:44;;;;;;;4.13;3.83;;;6.50;99.90;;;;;;4979963;28;20454;-63
2022/04/03 10:22:16;;;;;;;4.20;3.80;;;6.50;99.90;;;;;;4979007;28;20481;-63
2022/04/03 10:24:47;;;;;;;3.80;3.23;;;6.50;99.90;;;;;;4979149;28;20443;-61
2022/04/03 10:27:18;;;;;;;3.30;3.10;;;6.30;99.90;;;;;;4979012;28;20902;-62
2022/04/03 10:29:45;;;;;;;4.63;3.10;;;6.50;99.90;;;;;;4978627;28;20898;-60
2022/04/03 10:32:24;;;;;;;3.30;3.00;;;6.60;99.90;;;;;;4978738;28;20486;-62
2022/04/03 10:34:55;;;;;;;3.63;3.33;;;6.90;99.90;;;;;;4978986;28;20549;-60
2022/04/03 10:37:33;;;;;;;3.87;3.30;;;6.80;99.90;;;;;;4979107;28;20466;-61
2022/04/03 10:40:04;;;;;;;3.10;2.90;;;6.70;99.90;;;;;;4978925;28;20538;-60
2022/04/03 10:42:31;;;;;;;3.47;3.17;;;6.50;99.90;;;;;;4978780;28;20478;-61
2022/04/03 10:45:33;;;;;;;3.20;2.90;;;6.40;99.90;;;;;;4978909;28;20451;-61
2022/04/03 10:48:39;;;;;;;4.10;3.70;;;6.40;99.90;;;;;;4973546;28;20454;-61
2022/04/03 10:51:10;;;;;;;2.60;2.40;;;6.50;99.90;;;;;;4973536;28;21019;-62
2022/04/03 10:53:40;;;;;;;3.37;3.17;;;6.90;99.90;;;;;;4979040;28;20439;-62
2022/04/03 10:56:11;;;;;;;2.97;2.77;;;7.90;96.10;;;;;;4978902;28;20454;-61
2022/04/03 10:58:40;;;;;;;3.20;3.00;;;8.70;92.40;;;;;;4978496;28;20878;-61
2022/04/03 11:01:11;;;;;;;2.80;2.67;;;9.20;93.80;;;;;;4978833;28;20485;-62
2022/04/03 11:03:38;;;;;;;2.90;2.80;;;9.40;93.60;;;;;;4979418;28;20470;-63
2022/04/03 11:06:30;;;;;;;3.00;2.80;;;9.60;90.70;;;;;;4978879;28;20493;-62
2022/04/03 11:09:00;;;;;;;3.47;3.17;;;9.40;90.20;;;;;;4978517;28;20443;-62
2022/04/03 11:11:35;;;;;;;4.13;3.00;;;9.20;90.10;;;;;;4978404;28;20475;-61
2022/04/03 11:14:02;;;;;;;4.77;3.70;;;9.00;84.10;;;;;;4978706;28;20446;-61
2022/04/03 11:16:29;;;;;;;3.70;3.50;;;8.60;89.40;;;;;;4978305;28;20461;-61
2022/04/03 11:19:04;;;;;;;7.50;3.93;;;8.20;90.50;;;;;;4978767;28;20533;-62
2022/04/03 11:21:35;;;;;;;4.60;3.40;;;7.90;90.30;;;;;;4978598;28;20529;-61
2022/04/03 11:24:03;;;;;;;3.03;2.83;;;7.70;90.90;;;;;;4978249;28;20859;-61
2022/04/03 11:26:31;;;;;;;3.20;2.90;;;7.40;98.90;;;;;;4978129;28;20567;-62
2022/04/03 11:28:57;;;;;;;3.43;3.13;;;7.30;93.40;;;;;;4978101;28;20454;-61
2022/04/03 11:31:25;;;;;;;5.70;3.73;;;7.30;93.30;;;;;;4977820;28;20482;-62
2022/04/03 11:33:52;;;;;;;3.30;3.10;;;7.30;93.60;;;;;;4977442;28;20820;-62
2022/04/03 11:36:21;;;;;;;3.00;2.80;;;7.20;93.40;;;;;;4977586;28;20557;-62
2022/04/03 11:38:51;;;;;;;5.40;3.93;;;7.30;94.80;;;;;;4977621;28;20482;-63
2022/04/03 11:41:20;;;;;;;3.20;3.00;;;7.30;94.00;;;;;;4977912;28;20514;-61
2022/04/03 11:43:57;;;;;;;3.27;3.00;;;7.30;92.10;;;;;;4977963;28;20462;-61
2022/04/03 11:46:24;;;;;;;3.10;2.90;;;7.30;92.60;;;;;;4977874;28;20447;-62
2022/04/03 11:48:51;;;;;;;3.43;3.03;;;7.30;90.80;;;;;;4977763;28;20772;-61
2022/04/03 11:51:20;;;;;;;3.30;3.00;;;7.10;92.50;;;;;;4977427;28;20533;-60
2022/04/03 11:53:58;;;;;;;3.63;3.33;;;7.00;93.30;;;;;;4977742;28;20456;-61
2022/04/03 11:56:28;;;;;;;4.63;3.87;;;6.90;93.30;;;;;;4977001;28;20438;-62
2022/04/03 11:58:56;;;;;;;3.77;3.30;;;6.70;91.20;;;;;;4977882;28;20447;-63
2022/04/03 12:01:29;;;;;;;4.00;3.60;;;6.70;92.00;;;;;;4983157;28;20555;-61
2022/04/03 12:04:00;;;;;;;3.97;3.67;;;6.80;94.10;;;;;;4983802;28;20438;-62
2022/04/03 12:06:27;;;;;;;6.70;3.87;;;6.70;94.40;;;;;;4987616;28;20458;-60
2022/04/03 12:08:55;;;;;;;5.70;4.53;;;6.50;96.40;;;;;;4982799;28;20482;-62
2022/04/03 12:11:29;;;;;;;4.17;3.83;;;6.30;96.50;;;;;;4977469;28;20849;-63
2022/04/03 12:13:57;;;;;;;4.50;4.13;;;6.10;98.00;;;;;;4977410;28;20439;-62
2022/04/03 12:16:25;;;;;;;4.20;3.90;;;6.00;99.60;;;;;;4977236;28;20451;-63
2022/04/03 12:18:59;;;;;;;4.07;3.77;;;5.90;98.90;;;;;;4976602;28;20858;-62
2022/04/03 12:21:40;;;;;;;3.73;3.43;;;5.80;98.90;;;;;;4976370;28;20479;-62
2022/04/03 12:24:11;;;;;;;4.63;4.23;;;5.80;97.80;;;;;;4976931;28;20443;-62
2022/04/03 12:26:38;;;;;;;4.00;3.67;;;5.80;98.20;;;;;;4976208;28;20933;-61
2022/04/03 12:29:06;;;;;;;3.40;3.20;;;6.00;98.00;;;;;;4976996;28;20462;-60
2022/04/03 12:31:34;;;;;;;5.33;4.17;;;6.10;97.60;;;;;;4981676;28;20482;-61
2022/04/03 12:34:12;;;;;;;4.00;3.70;;;6.20;97.10;;;;;;4978345;28;20458;-62
2022/04/03 12:36:40;;;;;;;4.33;3.90;;;6.20;98.60;;;;;;4976974;28;20450;-61
2022/04/03 12:39:30;;;;;;;3.87;3.47;;;6.30;99.80;;;;;;4976626;28;20475;-62
2022/04/03 12:41:58;;;;;;;9.90;3.40;;;6.30;99.20;;;;;;4975950;28;20470;-62
2022/04/03 12:44:25;;;;;;;3.60;3.40;;;6.30;98.70;;;;;;4976366;28;20458;-61
2022/04/03 12:46:51;;;;;;;4.00;3.70;;;6.00;99.30;;;;;;4976111;28;20455;-60
2022/04/03 12:49:18;;;;;;;3.07;2.90;;;5.90;99.90;;;;;;4975958;28;20455;-62
2022/04/03 12:51:45;;;;;;;5.00;3.73;;;6.10;99.90;;;;;;4975871;28;21004;-61
2022/04/03 12:54:12;;;;;;;3.10;2.80;;;6.10;99.90;;;;;;4976269;28;20450;-62
2022/04/03 12:59:37;;;;;;;3.70;2.90;;;6.40;99.90;;;;;;4976136;28;20419;-60
2022/04/03 13:02:05;;;;;;;3.20;2.90;;;6.80;99.90;;;;;;4975457;28;20861;-61
2022/04/03 13:04:32;;;;;;;3.27;2.97;;;7.10;98.80;;;;;;4975793;28;20475;-61
2022/04/03 13:06:59;;;;;;;3.07;2.87;;;7.30;95.70;;;;;;4975791;28;20459;-61
2022/04/03 13:09:26;;;;;;;2.90;2.70;;;7.50;95.00;;;;;;4975866;28;20466;-62
2022/04/03 13:11:54;;;;;;;3.30;3.10;;;7.60;93.00;;;;;;4980079;28;20479;-61
2022/04/03 13:14:23;;;;;;;3.80;3.50;;;7.60;93.40;;;;;;4986142;28;20455;-61
2022/04/03 13:16:52;;;;;;;4.63;3.70;;;7.50;94.60;;;;;;4982281;28;20451;-61
2022/04/03 13:19:22;;;;;;;4.70;4.13;;;7.30;95.20;;;;;;4975894;28;20486;-63
2022/04/03 13:21:49;;;;;;;4.27;4.00;;;7.10;96.60;;;;;;4975502;28;20533;-62
2022/04/03 13:24:16;;;;;;;3.80;3.20;;;6.80;95.70;;;;;;4975495;28;20458;-61
2022/04/03 13:26:43;;;;;;;3.80;3.30;;;6.80;95.20;;;;;;4975406;28;20462;-61
2022/04/03 13:29:12;;;;;;;3.73;3.40;;;6.80;95.10;;;;;;4975175;28;20953;-62
2022/04/03 13:31:40;;;;;;;4.43;3.57;;;6.90;96.10;;;;;;4975211;28;20502;-61
2022/04/03 13:34:08;;;;;;;4.30;3.90;;;6.90;97.30;;;;;;4975605;28;20459;-63
2022/04/03 13:36:35;;;;;;;4.97;4.50;;;7.40;98.70;;;;;;4975490;28;20819;-61
2022/04/03 13:39:04;;;;;;;3.87;3.60;;;7.70;96.30;;;;;;4975329;28;20474;-63
2022/04/03 13:41:31;;;;;;;4.30;4.00;;;7.90;94.70;;;;;;4975709;28;20506;-62
2022/04/03 13:43:58;;;;;;;4.17;3.87;;;8.00;95.60;;;;;;4975492;28;20450;-60
2022/04/03 13:46:26;;;;;;;4.07;3.80;;;8.20;95.60;;;;;;4978548;28;20549;-60
2022/04/03 13:48:53;;;;;;;4.17;3.77;;;8.40;95.80;;;;;;4981694;28;20478;-62
2022/04/03 13:51:20;;;;;;;6.17;4.00;;;8.50;95.90;;;;;;4981706;28;20479;-62
2022/04/03 13:53:47;;;;;;;4.80;4.37;;;8.30;94.60;;;;;;4981122;28;20485;-62
2022/04/03 13:56:14;;;;;;;4.90;3.63;;;8.20;94.20;;;;;;4980040;28;20470;-61
2022/04/03 13:58:41;;;;;;;4.43;3.97;;;7.90;94.00;;;;;;4980154;28;20474;-61
2022/04/03 14:01:09;;;;;;;3.87;3.60;;;7.60;94.80;;;;;;4979131;28;20487;-62
2022/04/03 14:03:37;;;;;;;3.40;3.13;;;7.20;95.40;;;;;;4979365;28;20459;-62
2022/04/03 14:06:04;;;;;;;3.80;3.60;;;6.90;96.40;;;;;;4979600;28;20454;-62
2022/04/03 14:08:33;;;;;;;3.43;3.13;;;6.60;95.10;;;;;;4979733;28;20450;-61
2022/04/03 14:11:00;;;;;;;4.80;4.23;;;6.40;97.00;;;;;;4979145;28;20482;-61
2022/04/03 14:13:28;;;;;;;4.77;4.30;;;6.30;96.70;;;;;;4979279;28;20458;-61
2022/04/03 14:15:56;;;;;;;5.77;3.77;;;6.10;97.70;;;;;;4979138;28;20463;-62
2022/04/03 14:18:25;;;;;;;3.80;3.50;;;6.00;97.80;;;;;;4979393;28;20479;-62
2022/04/03 14:20:53;;;;;;;4.40;4.00;;;6.00;98.80;;;;;;4979186;28;20485;-62
2022/04/03 14:23:20;;;;;;;4.47;4.17;;;6.10;98.60;;;;;;4979377;28;20482;-62
2022/04/03 14:25:47;;;;;;;3.77;3.47;;;6.10;99.90;;;;;;4979379;28;20513;-62
2022/04/03 14:28:14;;;;;;;4.40;4.10;;;6.10;97.90;;;;;;4978541;28;20553;-62
2022/04/03 14:30:41;;;;;;;4.27;3.97;;;6.10;97.30;;;;;;4979061;28;20526;-62
2022/04/03 14:33:08;;;;;;;4.27;3.23;;;6.20;96.90;;;;;;4978921;28;20462;-63
2022/04/03 14:35:36;;;;;;;3.93;3.63;;;6.30;98.50;;;;;;4978914;28;20639;-61
2022/04/03 14:38:04;;;;;;;4.93;3.90;;;6.30;98.30;;;;;;4978781;28;20486;-61
2022/04/03 14:40:31;;;;;;;4.00;3.77;;;6.30;97.60;;;;;;4979184;28;20450;-61
2022/04/03 14:42:58;;;;;;;4.00;3.77;;;6.30;97.40;;;;;;4978592;28;20505;-61
2022/04/03 14:45:25;;;;;;;3.90;3.50;;;6.20;95.70;;;;;;4982130;28;20563;-63
2022/04/03 14:47:53;;;;;;;4.20;3.20;;;6.20;96.40;;;;;;4978937;28;20505;-62
2022/04/03 14:50:20;;;;;;;3.50;3.30;;;6.30;95.60;;;;;;4978773;28;20805;-61
2022/04/03 14:52:47;;;;;;;3.47;3.27;;;6.20;95.20;;;;;;4984816;28;20469;-61
2022/04/03 14:55:15;;;;;;;4.03;3.73;;;6.20;96.60;;;;;;4980583;28;20451;-62
2022/04/03 14:57:42;;;;;;;6.03;3.60;;;6.30;96.30;;;;;;4978490;28;20459;-67
2022/04/03 15:00:11;;;;;;;4.17;3.73;;;6.30;95.70;;;;;;4978224;28;20470;-61
2022/04/03 15:02:38;;;;;;;3.80;3.50;;;6.20;95.30;;;;;;4979264;28;20471;-62
2022/04/03 15:05:07;;;;;;;5.97;3.50;;;6.20;94.20;;;;;;4979805;28;20451;-63
2022/04/03 15:07:35;;;;;;;4.40;3.50;;;6.20;94.30;;;;;;4978737;28;20461;-62
2022/04/03 15:10:03;;;;;;;3.47;3.27;;;6.20;94.30;;;;;;4978504;28;20549;-63
2022/04/03 15:12:31;;;;;;;3.97;3.57;;;6.20;93.90;;;;;;4978508;28;20470;-62
2022/04/03 15:14:58;;;;;;;4.30;4.00;;;6.20;94.30;;;;;;4978430;28;20521;-62
2022/04/03 15:17:25;;;;;;;4.37;4.00;;;6.20;94.30;;;;;;4978427;28;20455;-62
2022/04/03 15:19:52;;;;;;;3.60;3.30;;;6.30;94.30;;;;;;4978244;28;20855;-63
2022/04/03 15:22:20;;;;;;;6.33;4.40;;;6.40;94.30;;;;;;4978864;28;20486;-64
2022/04/03 15:24:47;;;;;;;4.40;4.00;;;6.50;96.50;;;;;;4978759;28;20455;-63
2022/04/03 15:27:14;;;;;;;4.13;3.83;;;6.70;98.30;;;;;;4978004;28;20455;-62
2022/04/03 15:29:53;;;;;;;4.03;3.73;;;6.90;97.10;;;;;;4977863;28;20455;-64
2022/04/03 15:32:20;;;;;;;5.80;3.50;;;7.00;93.50;;;;;;4978201;28;20478;-63
2022/04/03 15:34:47;;;;;;;5.50;4.17;;;6.90;93.30;;;;;;4977768;28;20443;-63
2022/04/03 15:37:19;;;;;;;3.47;3.17;;;6.80;92.00;;;;;;4978399;28;20455;-63
2022/04/03 15:39:48;;;;;;;3.67;3.47;;;6.70;91.90;;;;;;4978130;28;20962;-63
2022/04/03 15:42:15;;;;;;;3.57;3.27;;;6.70;92.00;;;;;;4979204;28;20832;-62
2022/04/03 15:44:41;;;;;;;3.73;3.27;;;6.60;92.50;;;;;;4978229;28;20514;-63
2022/04/03 15:47:09;;;;;;;5.33;3.90;;;6.50;92.40;;;;;;4978618;28;20454;-62
2022/04/03 15:49:37;;;;;;;3.30;3.10;;;6.40;94.00;;;;;;4979219;28;20946;-63
2022/04/03 15:52:06;;;;;;;6.13;4.00;;;6.20;94.90;;;;;;4979884;28;20474;-62
2022/04/03 15:54:33;;;;;;;4.07;3.67;;;6.00;94.00;;;;;;4979410;28;20555;-62
2022/04/03 15:57:00;;;;;;;4.30;3.93;;;5.90;95.50;;;;;;4979591;28;20569;-62
2022/04/03 15:59:27;;;;;;;4.37;3.97;;;5.80;95.30;;;;;;4978211;28;20997;-62
2022/04/03 16:01:54;;;;;;;44.47;17.07;;;5.60;95.00;;;;;;4976910;28;20494;-62
2022/04/03 16:04:22;;;;;;;48.33;20.70;;;5.60;95.80;;;;;;4977527;28;20461;-62
2022/04/03 16:06:49;;;;;;;20.57;9.80;;;5.50;96.70;;;;;;4977680;28;20458;-62
2022/04/03 16:09:16;;;;;;;6.60;5.40;;;5.50;95.90;;;;;;4977226;28;20463;-63
2022/04/03 16:11:43;;;;;;;4.67;4.27;;;5.60;95.00;;;;;;4977072;28;20479;-63
2022/04/03 16:14:10;;;;;;;3.57;3.13;;;5.60;95.70;;;;;;4976877;28;20486;-62
2022/04/03 16:16:37;;;;;;;3.53;3.23;;;5.60;93.90;;;;;;4977480;28;20868;-63
2022/04/03 16:19:05;;;;;;;3.17;2.90;;;5.70;95.50;;;;;;4976592;28;20997;-62
2022/04/03 16:21:34;;;;;;;4.27;3.87;;;5.80;94.00;;;;;;4978139;28;20475;-62
2022/04/03 16:24:01;;;;;;;3.57;3.37;;;5.90;94.90;;;;;;4982290;28;20463;-62
2022/04/03 16:26:28;;;;;;;4.17;3.77;;;6.00;95.30;;;;;;4982550;28;20447;-64
2022/04/03 16:28:55;;;;;;;3.80;3.50;;;6.00;93.30;;;;;;4979912;28;20450;-64
2022/04/03 16:31:22;;;;;;;5.53;4.93;;;6.00;92.40;;;;;;4978401;28;20485;-63
2022/04/03 16:33:53;;;;;;;5.00;4.30;;;6.00;94.60;;;;;;4980785;28;20524;-63
2022/04/03 16:36:23;;;;;;;4.63;4.20;;;5.90;96.10;;;;;;4981355;28;20457;-63
2022/04/03 16:38:52;;;;;;;4.30;4.00;;;6.00;96.90;;;;;;4979207;28;20541;-60
2022/04/03 16:41:20;;;;;;;5.20;4.53;;;5.90;95.90;;;;;;4978164;28;20478;-61
2022/04/03 16:43:46;;;;;;;4.60;4.30;;;5.90;97.00;;;;;;4978543;28;20554;-61
2022/04/03 16:46:13;;;;;;;4.73;3.93;;;5.80;97.20;;;;;;4977552;28;20462;-61
2022/04/03 16:48:41;;;;;;;5.00;4.50;;;5.80;97.60;;;;;;4977497;28;20537;-61
2022/04/03 16:51:08;;;;;;;5.03;4.63;;;5.80;98.60;;;;;;4976852;28;20481;-63
2022/04/03 16:53:34;;;;;;;4.90;4.47;;;5.80;98.50;;;;;;4977373;28;21010;-63
2022/04/03 16:56:03;;;;;;;5.13;4.63;;;5.80;98.80;;;;;;4977036;28;20459;-64
2022/04/03 16:58:31;;;;;;;4.93;4.43;;;5.80;99.50;;;;;;4977483;28;20471;-61
2022/04/03 17:00:57;;;;;;;4.40;4.10;;;5.80;99.20;;;;;;4977523;28;20853;-62
2022/04/03 17:03:24;;;;;;;5.40;4.90;;;5.80;99.30;;;;;;4977488;28;20451;-61